sensor_id;sensor_type;location;lat;lon;timestamp;pressure;altitude;pressure_sealevel;temperature;humidity
26087;BME280;13851;43.434;28.338;2022-11-21T00:00:48;99453.56;;;13.66;100.00
26087;BME280;13851;43.434;28.338;2022-11-21T00:03:17;99443.84;;;13.64;100.00
26087;BME280;13851;43.434;28.338;2022-11-21T00:05:45;99427.09;;;13.45;100.00
26087;BME280;13851;43.434;28.338;2022-11-21T00:08:15;99442.81;;;13.51;100.00
26087;BME280;13851;43.434;28.338;2022-11-21T00:10:41;99432.19;;;13.48;100.00
26087;BME280;13851;43.434;28.338;2022-11-21T00:13:19;99396.44;;;13.29;100.00
26087;BME280;13851;43.434;28.338;2022-11-21T00:15:46;99423.13;;;13.41;100.00
26087;BME280;13851;43.434;28.338;2022-11-21T00:18:12;99385.00;;;13.25;100.00
26087;BME280;13851;43.434;28.338;2022-11-21T00:20:38;99409.97;;;13.43;100.00
26087;BME280;13851;43.434;28.338;2022-11-21T00:23:07;99409.97;;;13.43;100.00
26087;BME280;13851;43.434;28.338;2022-11-21T00:25:32;99418.84;;;13.45;100.00
26087;BME280;13851;43.434;28.338;2022-11-21T00:27:58;99416.75;;;13.34;100.00
26087;BME280;13851;43.434;28.338;2022-11-21T00:30:26;99294.63;;;12.82;100.00
26087;BME280;13851;43.434;28.338;2022-11-21T00:32:52;99410.41;;;13.67;100.00
26087;BME280;13851;43.434;28.338;2022-11-21T00:35:17;99281.53;;;12.91;100.00
26087;BME280;13851;43.434;28.338;2022-11-21T00:37:47;99413.31;;;13.85;100.00
26087;BME280;13851;43.434;28.338;2022-11-21T00:40:16;99405.69;;;13.94;100.00
26087;BME280;13851;43.434;28.338;2022-11-21T00:42:42;99381.13;;;13.92;100.00
26087;BME280;13851;43.434;28.338;2022-11-21T00:45:08;99400.13;;;14.07;100.00
26087;BME280;13851;43.434;28.338;2022-11-21T00:47:33;99378.50;;;14.24;100.00
26087;BME280;13851;43.434;28.338;2022-11-21T00:50:02;99242.31;;;13.62;100.00
26087;BME280;13851;43.434;28.338;2022-11-21T00:52:28;99388.59;;;14.50;100.00
26087;BME280;13851;43.434;28.338;2022-11-21T00:54:53;99362.72;;;14.44;100.00
26087;BME280;13851;43.434;28.338;2022-11-21T00:57:19;99352.53;;;14.45;100.00
26087;BME280;13851;43.434;28.338;2022-11-21T00:59:47;99365.00;;;14.61;100.00
26087;BME280;13851;43.434;28.338;2022-11-21T01:02:13;99348.59;;;14.72;100.00
26087;BME280;13851;43.434;28.338;2022-11-21T01:04:39;99293.56;;;14.52;100.00
26087;BME280;13851;43.434;28.338;2022-11-21T01:07:04;99328.91;;;14.94;100.00
26087;BME280;13851;43.434;28.338;2022-11-21T01:09:30;99321.59;;;14.81;100.00
26087;BME280;13851;43.434;28.338;2022-11-21T01:11:55;99339.34;;;14.92;100.00
26087;BME280;13851;43.434;28.338;2022-11-21T01:14:21;99170.97;;;13.98;100.00
26087;BME280;13851;43.434;28.338;2022-11-21T01:16:47;99301.84;;;14.84;100.00
26087;BME280;13851;43.434;28.338;2022-11-21T01:19:13;99268.19;;;14.75;100.00
26087;BME280;13851;43.434;28.338;2022-11-21T01:21:38;99294.13;;;14.93;100.00
26087;BME280;13851;43.434;28.338;2022-11-21T01:24:04;99243.38;;;14.75;100.00
26087;BME280;13851;43.434;28.338;2022-11-21T01:26:33;99287.34;;;14.95;100.00
26087;BME280;13851;43.434;28.338;2022-11-21T01:28:59;99223.78;;;14.83;100.00
26087;BME280;13851;43.434;28.338;2022-11-21T01:31:27;99211.47;;;14.86;100.00
26087;BME280;13851;43.434;28.338;2022-11-21T01:33:53;99263.72;;;14.99;100.00
26087;BME280;13851;43.434;28.338;2022-11-21T01:36:25;99241.06;;;14.97;100.00
26087;BME280;13851;43.434;28.338;2022-11-21T01:38:53;99231.19;;;15.08;100.00
26087;BME280;13851;43.434;28.338;2022-11-21T01:41:28;99219.22;;;14.96;100.00
26087;BME280;13851;43.434;28.338;2022-11-21T01:43:58;99219.41;;;15.01;100.00
26087;BME280;13851;43.434;28.338;2022-11-21T01:46:25;99122.25;;;14.55;100.00
26087;BME280;13851;43.434;28.338;2022-11-21T01:51:39;99221.22;;;15.32;100.00
26087;BME280;13851;43.434;28.338;2022-11-21T01:54:15;99217.75;;;15.37;100.00
26087;BME280;13851;43.434;28.338;2022-11-21T01:56:48;99188.69;;;15.34;100.00
26087;BME280;13851;43.434;28.338;2022-11-21T01:59:26;99201.03;;;15.50;100.00
26087;BME280;13851;43.434;28.338;2022-11-21T02:01:54;99211.53;;;15.59;100.00
26087;BME280;13851;43.434;28.338;2022-11-21T02:04:26;99200.06;;;15.63;100.00
26087;BME280;13851;43.434;28.338;2022-11-21T02:07:02;99200.00;;;15.69;100.00
26087;BME280;13851;43.434;28.338;2022-11-21T02:09:34;99177.91;;;15.69;100.00
26087;BME280;13851;43.434;28.338;2022-11-21T02:12:14;99176.91;;;15.82;100.00
26087;BME280;13851;43.434;28.338;2022-11-21T02:14:46;99171.81;;;15.79;100.00
26087;BME280;13851;43.434;28.338;2022-11-21T02:17:17;99136.75;;;15.79;100.00
26087;BME280;13851;43.434;28.338;2022-11-21T02:19:54;99163.88;;;16.01;100.00
26087;BME280;13851;43.434;28.338;2022-11-21T02:22:45;99185.91;;;16.07;100.00
26087;BME280;13851;43.434;28.338;2022-11-21T02:25:21;99159.31;;;16.06;100.00
26087;BME280;13851;43.434;28.338;2022-11-21T02:27:55;99164.53;;;16.15;100.00
26087;BME280;13851;43.434;28.338;2022-11-21T02:30:21;99156.47;;;16.13;100.00
26087;BME280;13851;43.434;28.338;2022-11-21T02:32:47;99034.63;;;15.31;100.00
26087;BME280;13851;43.434;28.338;2022-11-21T02:35:17;99165.59;;;16.14;100.00
26087;BME280;13851;43.434;28.338;2022-11-21T02:37:47;99176.94;;;16.24;100.00
26087;BME280;13851;43.434;28.338;2022-11-21T02:40:27;99167.94;;;16.28;100.00
26087;BME280;13851;43.434;28.338;2022-11-21T02:43:08;99166.59;;;16.31;100.00
26087;BME280;13851;43.434;28.338;2022-11-21T02:45:38;99139.97;;;16.06;100.00
26087;BME280;13851;43.434;28.338;2022-11-21T02:48:04;99169.72;;;16.23;100.00
26087;BME280;13851;43.434;28.338;2022-11-21T02:50:33;99182.63;;;16.10;100.00
26087;BME280;13851;43.434;28.338;2022-11-21T02:52:59;99171.44;;;16.05;100.00
26087;BME280;13851;43.434;28.338;2022-11-21T02:55:25;99137.19;;;15.95;100.00
26087;BME280;13851;43.434;28.338;2022-11-21T02:57:54;99137.34;;;16.11;100.00
26087;BME280;13851;43.434;28.338;2022-11-21T03:00:20;99133.53;;;16.13;100.00
26087;BME280;13851;43.434;28.338;2022-11-21T03:02:46;99008.44;;;15.52;100.00
26087;BME280;13851;43.434;28.338;2022-11-21T03:05:14;99143.47;;;16.55;100.00
26087;BME280;13851;43.434;28.338;2022-11-21T03:07:40;99118.19;;;16.40;100.00
26087;BME280;13851;43.434;28.338;2022-11-21T03:10:05;99111.00;;;16.62;100.00
26087;BME280;13851;43.434;28.338;2022-11-21T03:12:31;99133.41;;;16.73;100.00
26087;BME280;13851;43.434;28.338;2022-11-21T03:14:56;99102.50;;;16.76;100.00
26087;BME280;13851;43.434;28.338;2022-11-21T03:17:22;98932.19;;;16.04;100.00
26087;BME280;13851;43.434;28.338;2022-11-21T03:19:47;99091.03;;;17.07;100.00
26087;BME280;13851;43.434;28.338;2022-11-21T03:22:14;99040.78;;;17.67;100.00
26087;BME280;13851;43.434;28.338;2022-11-21T03:24:40;99015.56;;;17.52;100.00
26087;BME280;13851;43.434;28.338;2022-11-21T03:27:06;99014.47;;;17.82;100.00
26087;BME280;13851;43.434;28.338;2022-11-21T03:29:34;99015.22;;;17.65;100.00
26087;BME280;13851;43.434;28.338;2022-11-21T03:31:59;99011.88;;;17.63;100.00
26087;BME280;13851;43.434;28.338;2022-11-21T03:34:27;99026.00;;;17.62;100.00
26087;BME280;13851;43.434;28.338;2022-11-21T03:36:53;99034.03;;;17.63;100.00
26087;BME280;13851;43.434;28.338;2022-11-21T03:39:18;98892.88;;;16.78;100.00
26087;BME280;13851;43.434;28.338;2022-11-21T03:41:44;98999.03;;;17.29;100.00
26087;BME280;13851;43.434;28.338;2022-11-21T03:44:10;99025.59;;;17.41;100.00
26087;BME280;13851;43.434;28.338;2022-11-21T03:46:41;99021.28;;;17.34;100.00
26087;BME280;13851;43.434;28.338;2022-11-21T03:49:07;99022.91;;;17.18;100.00
26087;BME280;13851;43.434;28.338;2022-11-21T03:51:34;99016.22;;;17.02;100.00
26087;BME280;13851;43.434;28.338;2022-11-21T03:54:05;99026.56;;;17.07;100.00
26087;BME280;13851;43.434;28.338;2022-11-21T03:56:30;99009.47;;;17.10;100.00
26087;BME280;13851;43.434;28.338;2022-11-21T03:59:01;98976.19;;;16.93;100.00
26087;BME280;13851;43.434;28.338;2022-11-21T04:01:27;98990.59;;;17.07;100.00
26087;BME280;13851;43.434;28.338;2022-11-21T04:03:53;98965.94;;;17.05;100.00
26087;BME280;13851;43.434;28.338;2022-11-21T04:06:21;98941.22;;;16.87;100.00
26087;BME280;13851;43.434;28.338;2022-11-21T04:08:50;98992.31;;;17.25;100.00
26087;BME280;13851;43.434;28.338;2022-11-21T04:11:16;98981.03;;;17.14;100.00
26087;BME280;13851;43.434;28.338;2022-11-21T04:13:44;98990.41;;;17.25;100.00
26087;BME280;13851;43.434;28.338;2022-11-21T04:16:14;98980.75;;;17.28;100.00
26087;BME280;13851;43.434;28.338;2022-11-21T04:18:40;98957.13;;;17.08;100.00
26087;BME280;13851;43.434;28.338;2022-11-21T04:21:06;98938.59;;;17.09;100.00
26087;BME280;13851;43.434;28.338;2022-11-21T04:23:32;98973.44;;;17.22;100.00
26087;BME280;13851;43.434;28.338;2022-11-21T04:25:58;98959.09;;;17.25;100.00
26087;BME280;13851;43.434;28.338;2022-11-21T04:28:24;98971.03;;;17.25;100.00
26087;BME280;13851;43.434;28.338;2022-11-21T04:30:50;98931.91;;;17.05;100.00
26087;BME280;13851;43.434;28.338;2022-11-21T04:33:17;98955.09;;;17.32;100.00
26087;BME280;13851;43.434;28.338;2022-11-21T04:35:44;98827.78;;;16.58;100.00
26087;BME280;13851;43.434;28.338;2022-11-21T04:38:13;98954.09;;;17.38;100.00
26087;BME280;13851;43.434;28.338;2022-11-21T04:40:42;98948.31;;;17.40;100.00
26087;BME280;13851;43.434;28.338;2022-11-21T04:43:07;98915.13;;;17.11;100.00
26087;BME280;13851;43.434;28.338;2022-11-21T04:45:36;98940.34;;;17.44;100.00
26087;BME280;13851;43.434;28.338;2022-11-21T04:48:01;98921.72;;;17.39;100.00
26087;BME280;13851;43.434;28.338;2022-11-21T04:50:27;98916.78;;;17.41;100.00
26087;BME280;13851;43.434;28.338;2022-11-21T04:52:54;98916.38;;;17.49;100.00
26087;BME280;13851;43.434;28.338;2022-11-21T04:55:22;98906.28;;;17.43;100.00
26087;BME280;13851;43.434;28.338;2022-11-21T04:57:48;98917.75;;;17.35;100.00
26087;BME280;13851;43.434;28.338;2022-11-21T05:00:15;98920.03;;;17.38;100.00
26087;BME280;13851;43.434;28.338;2022-11-21T05:02:41;98905.09;;;17.39;100.00
26087;BME280;13851;43.434;28.338;2022-11-21T05:05:07;98884.44;;;17.30;100.00
26087;BME280;13851;43.434;28.338;2022-11-21T05:07:33;98900.41;;;17.39;100.00
26087;BME280;13851;43.434;28.338;2022-11-21T05:09:59;98884.44;;;17.30;100.00
26087;BME280;13851;43.434;28.338;2022-11-21T05:12:24;98864.41;;;17.23;100.00
26087;BME280;13851;43.434;28.338;2022-11-21T05:15:13;98877.75;;;17.59;100.00
26087;BME280;13851;43.434;28.338;2022-11-21T05:17:39;98858.66;;;17.58;100.00
26087;BME280;13851;43.434;28.338;2022-11-21T05:20:05;98877.53;;;17.61;100.00
26087;BME280;13851;43.434;28.338;2022-11-21T05:22:31;98863.00;;;17.37;100.00
26087;BME280;13851;43.434;28.338;2022-11-21T05:24:56;98856.28;;;17.50;100.00
26087;BME280;13851;43.434;28.338;2022-11-21T05:27:22;98845.97;;;17.45;100.00
26087;BME280;13851;43.434;28.338;2022-11-21T05:29:47;98859.81;;;17.45;100.00
26087;BME280;13851;43.434;28.338;2022-11-21T05:32:13;98705.06;;;16.59;100.00
26087;BME280;13851;43.434;28.338;2022-11-21T05:34:41;98857.91;;;17.46;100.00
26087;BME280;13851;43.434;28.338;2022-11-21T05:37:06;98882.66;;;17.52;100.00
26087;BME280;13851;43.434;28.338;2022-11-21T05:39:32;98726.06;;;16.44;100.00
26087;BME280;13851;43.434;28.338;2022-11-21T05:41:57;98688.47;;;16.59;100.00
26087;BME280;13851;43.434;28.338;2022-11-21T05:44:23;98853.78;;;17.48;100.00
26087;BME280;13851;43.434;28.338;2022-11-21T05:46:48;98852.75;;;17.54;100.00
26087;BME280;13851;43.434;28.338;2022-11-21T05:49:14;98833.22;;;17.44;100.00
26087;BME280;13851;43.434;28.338;2022-11-21T05:51:39;98711.38;;;16.72;100.00
26087;BME280;13851;43.434;28.338;2022-11-21T05:54:05;98868.97;;;17.46;100.00
26087;BME280;13851;43.434;28.338;2022-11-21T05:56:30;98866.44;;;17.44;100.00
26087;BME280;13851;43.434;28.338;2022-11-21T05:58:57;98835.81;;;17.34;100.00
26087;BME280;13851;43.434;28.338;2022-11-21T06:01:24;98745.72;;;16.47;100.00
26087;BME280;13851;43.434;28.338;2022-11-21T06:04:09;98870.22;;;17.38;100.00
26087;BME280;13851;43.434;28.338;2022-11-21T06:06:35;98888.09;;;17.30;100.00
26087;BME280;13851;43.434;28.338;2022-11-21T06:09:02;98702.59;;;16.46;100.00
26087;BME280;13851;43.434;28.338;2022-11-21T06:11:27;98868.19;;;17.33;100.00
26087;BME280;13851;43.434;28.338;2022-11-21T06:13:53;98861.16;;;17.26;100.00
26087;BME280;13851;43.434;28.338;2022-11-21T06:16:19;98864.50;;;17.28;100.00
26087;BME280;13851;43.434;28.338;2022-11-21T06:18:47;98872.91;;;17.33;100.00
26087;BME280;13851;43.434;28.338;2022-11-21T06:21:18;98882.13;;;17.38;100.00
26087;BME280;13851;43.434;28.338;2022-11-21T06:23:45;98873.56;;;17.23;100.00
26087;BME280;13851;43.434;28.338;2022-11-21T06:26:15;98840.84;;;17.20;100.00
26087;BME280;13851;43.434;28.338;2022-11-21T06:28:42;98719.34;;;16.40;100.00
26087;BME280;13851;43.434;28.338;2022-11-21T06:31:42;98868.09;;;17.11;100.00
26087;BME280;13851;43.434;28.338;2022-11-21T06:34:01;98877.41;;;17.22;100.00
26087;BME280;13851;43.434;28.338;2022-11-21T06:36:27;98858.31;;;17.21;100.00
26087;BME280;13851;43.434;28.338;2022-11-21T06:38:54;98899.38;;;17.29;100.00
26087;BME280;13851;43.434;28.338;2022-11-21T06:41:22;98907.94;;;17.27;100.00
26087;BME280;13851;43.434;28.338;2022-11-21T06:43:48;98893.75;;;17.24;100.00
26087;BME280;13851;43.434;28.338;2022-11-21T06:46:14;98886.28;;;17.07;100.00
26087;BME280;13851;43.434;28.338;2022-11-21T06:48:41;98904.66;;;17.13;100.00
26087;BME280;13851;43.434;28.338;2022-11-21T06:51:11;98910.09;;;17.08;100.00
26087;BME280;13851;43.434;28.338;2022-11-21T06:53:37;98926.50;;;16.98;100.00
26087;BME280;13851;43.434;28.338;2022-11-21T06:56:03;98923.25;;;17.01;100.00
26087;BME280;13851;43.434;28.338;2022-11-21T06:58:29;98846.16;;;16.64;100.00
26087;BME280;13851;43.434;28.338;2022-11-21T07:00:56;98948.31;;;16.83;100.00
26087;BME280;13851;43.434;28.338;2022-11-21T07:03:21;98773.94;;;15.92;100.00
26087;BME280;13851;43.434;28.338;2022-11-21T07:05:47;98926.19;;;16.83;100.00
26087;BME280;13851;43.434;28.338;2022-11-21T07:08:13;98946.16;;;16.73;100.00
26087;BME280;13851;43.434;28.338;2022-11-21T07:10:39;98940.28;;;16.70;100.00
26087;BME280;13851;43.434;28.338;2022-11-21T07:13:09;98936.31;;;16.77;100.00
26087;BME280;13851;43.434;28.338;2022-11-21T07:15:52;98942.44;;;16.79;100.00
26087;BME280;13851;43.434;28.338;2022-11-21T07:18:18;98913.63;;;16.63;100.00
26087;BME280;13851;43.434;28.338;2022-11-21T07:20:44;98886.38;;;16.32;100.00
26087;BME280;13851;43.434;28.338;2022-11-21T07:23:10;98902.03;;;16.15;100.00
26087;BME280;13851;43.434;28.338;2022-11-21T07:25:36;98674.75;;;14.92;100.00
26087;BME280;13851;43.434;28.338;2022-11-21T07:28:04;98923.66;;;16.18;100.00
26087;BME280;13851;43.434;28.338;2022-11-21T07:30:31;98929.44;;;16.04;100.00
26087;BME280;13851;43.434;28.338;2022-11-21T07:33:02;98886.19;;;15.86;100.00
26087;BME280;13851;43.434;28.338;2022-11-21T07:35:31;98910.56;;;15.78;100.00
26087;BME280;13851;43.434;28.338;2022-11-21T07:37:58;98788.06;;;15.02;100.00
26087;BME280;13851;43.434;28.338;2022-11-21T07:40:24;98916.81;;;15.85;100.00
26087;BME280;13851;43.434;28.338;2022-11-21T07:42:49;98917.19;;;15.77;100.00
26087;BME280;13851;43.434;28.338;2022-11-21T07:45:15;98910.56;;;15.66;100.00
26087;BME280;13851;43.434;28.338;2022-11-21T07:47:41;98929.66;;;15.79;100.00
26087;BME280;13851;43.434;28.338;2022-11-21T07:50:08;98955.84;;;15.89;100.00
26087;BME280;13851;43.434;28.338;2022-11-21T07:52:34;98930.63;;;15.73;100.00
26087;BME280;13851;43.434;28.338;2022-11-21T07:55:00;98925.59;;;15.82;100.00
26087;BME280;13851;43.434;28.338;2022-11-21T07:57:32;98914.75;;;15.69;100.00
26087;BME280;13851;43.434;28.338;2022-11-21T07:59:58;98909.94;;;15.76;100.00
26087;BME280;13851;43.434;28.338;2022-11-21T08:02:25;98903.25;;;15.83;100.00
26087;BME280;13851;43.434;28.338;2022-11-21T08:04:51;98935.06;;;15.86;100.00
26087;BME280;13851;43.434;28.338;2022-11-21T08:07:20;98887.88;;;15.64;100.00
26087;BME280;13851;43.434;28.338;2022-11-21T08:09:46;98732.41;;;14.70;100.00
26087;BME280;13851;43.434;28.338;2022-11-21T08:12:12;98743.41;;;14.70;100.00
26087;BME280;13851;43.434;28.338;2022-11-21T08:14:38;98890.75;;;15.69;100.00
26087;BME280;13851;43.434;28.338;2022-11-21T08:17:04;98928.81;;;15.79;100.00
26087;BME280;13851;43.434;28.338;2022-11-21T08:19:33;98913.78;;;15.86;100.00
26087;BME280;13851;43.434;28.338;2022-11-21T08:21:59;98776.78;;;14.92;100.00
26087;BME280;13851;43.434;28.338;2022-11-21T08:24:25;98951.97;;;15.66;100.00
26087;BME280;13851;43.434;28.338;2022-11-21T08:26:51;98943.16;;;15.57;100.00
26087;BME280;13851;43.434;28.338;2022-11-21T08:29:17;98948.81;;;15.63;100.00
26087;BME280;13851;43.434;28.338;2022-11-21T08:31:43;98946.34;;;15.73;100.00
26087;BME280;13851;43.434;28.338;2022-11-21T08:34:10;98992.56;;;15.77;100.00
26087;BME280;13851;43.434;28.338;2022-11-21T08:36:36;98921.22;;;15.63;100.00
26087;BME280;13851;43.434;28.338;2022-11-21T08:39:03;98952.38;;;15.93;100.00
26087;BME280;13851;43.434;28.338;2022-11-21T08:41:31;98919.56;;;15.97;100.00
26087;BME280;13851;43.434;28.338;2022-11-21T08:44:14;98955.97;;;16.29;100.00
26087;BME280;13851;43.434;28.338;2022-11-21T08:46:40;98939.13;;;16.54;100.00
26087;BME280;13851;43.434;28.338;2022-11-21T08:49:06;98920.09;;;16.69;100.00
26087;BME280;13851;43.434;28.338;2022-11-21T08:51:33;98918.28;;;17.03;100.00
26087;BME280;13851;43.434;28.338;2022-11-21T08:53:59;98944.78;;;17.28;100.00
26087;BME280;13851;43.434;28.338;2022-11-21T08:56:27;98889.59;;;17.21;100.00
26087;BME280;13851;43.434;28.338;2022-11-21T08:58:53;98912.50;;;17.50;100.00
26087;BME280;13851;43.434;28.338;2022-11-21T09:01:20;98892.03;;;17.51;100.00
26087;BME280;13851;43.434;28.338;2022-11-21T09:03:45;98890.34;;;17.33;100.00
26087;BME280;13851;43.434;28.338;2022-11-21T09:06:11;98874.72;;;16.82;100.00
26087;BME280;13851;43.434;28.338;2022-11-21T09:08:37;98935.41;;;17.00;100.00
26087;BME280;13851;43.434;28.338;2022-11-21T09:11:08;98914.78;;;16.68;100.00
26087;BME280;13851;43.434;28.338;2022-11-21T09:13:35;98907.34;;;16.56;100.00
26087;BME280;13851;43.434;28.338;2022-11-21T09:16:03;98881.34;;;16.29;100.00
26087;BME280;13851;43.434;28.338;2022-11-21T09:18:51;98921.25;;;16.21;100.00
26087;BME280;13851;43.434;28.338;2022-11-21T09:21:17;98934.69;;;16.41;100.00
26087;BME280;13851;43.434;28.338;2022-11-21T09:23:43;98911.63;;;16.24;100.00
26087;BME280;13851;43.434;28.338;2022-11-21T09:26:12;98943.34;;;16.33;100.00
26087;BME280;13851;43.434;28.338;2022-11-21T09:28:40;98925.94;;;16.21;100.00
26087;BME280;13851;43.434;28.338;2022-11-21T09:31:05;98925.41;;;16.47;100.00
26087;BME280;13851;43.434;28.338;2022-11-21T09:33:34;98893.84;;;16.31;100.00
26087;BME280;13851;43.434;28.338;2022-11-21T09:36:00;98760.75;;;15.47;100.00
26087;BME280;13851;43.434;28.338;2022-11-21T09:38:26;98922.28;;;16.55;100.00
26087;BME280;13851;43.434;28.338;2022-11-21T09:41:24;98926.09;;;16.66;100.00
26087;BME280;13851;43.434;28.338;2022-11-21T09:50:23;98866.94;;;16.79;100.00
26087;BME280;13851;43.434;28.338;2022-11-21T09:52:55;98929.91;;;17.17;100.00
26087;BME280;13851;43.434;28.338;2022-11-21T09:58:02;98878.09;;;17.29;100.00
26087;BME280;13851;43.434;28.338;2022-11-21T10:00:28;98888.84;;;17.26;100.00
26087;BME280;13851;43.434;28.338;2022-11-21T10:02:54;98886.72;;;17.33;100.00
26087;BME280;13851;43.434;28.338;2022-11-21T10:05:38;98876.94;;;17.42;100.00
26087;BME280;13851;43.434;28.338;2022-11-21T10:08:18;98874.75;;;17.44;100.00
26087;BME280;13851;43.434;28.338;2022-11-21T10:11:03;98871.66;;;17.57;100.00
26087;BME280;13851;43.434;28.338;2022-11-21T10:13:43;98865.84;;;17.59;100.00
26087;BME280;13851;43.434;28.338;2022-11-21T10:16:22;98849.59;;;17.46;100.00
26087;BME280;13851;43.434;28.338;2022-11-21T10:19:36;98832.66;;;17.25;100.00
26087;BME280;13851;43.434;28.338;2022-11-21T10:22:22;98840.34;;;17.23;100.00
26087;BME280;13851;43.434;28.338;2022-11-21T10:25:12;98841.19;;;17.24;100.00
26087;BME280;13851;43.434;28.338;2022-11-21T10:28:08;98822.06;;;17.05;100.00
26087;BME280;13851;43.434;28.338;2022-11-21T10:30:42;98690.13;;;16.15;100.00
26087;BME280;13851;43.434;28.338;2022-11-21T10:33:32;98843.50;;;16.98;100.00
26087;BME280;13851;43.434;28.338;2022-11-21T10:38:51;98827.59;;;17.05;100.00
26087;BME280;13851;43.434;28.338;2022-11-21T10:41:38;98805.47;;;17.05;100.00
26087;BME280;13851;43.434;28.338;2022-11-21T10:44:16;98822.06;;;17.05;100.00
26087;BME280;13851;43.434;28.338;2022-11-21T10:47:12;98797.81;;;17.12;100.00
26087;BME280;13851;43.434;28.338;2022-11-21T10:49:39;98799.91;;;17.05;100.00
26087;BME280;13851;43.434;28.338;2022-11-21T10:52:10;98788.91;;;16.94;100.00
26087;BME280;13851;43.434;28.338;2022-11-21T10:55:01;98802.41;;;16.90;100.00
26087;BME280;13851;43.434;28.338;2022-11-21T10:57:28;98771.56;;;16.98;100.00
26087;BME280;13851;43.434;28.338;2022-11-21T11:05:26;98766.44;;;17.24;100.00
26087;BME280;13851;43.434;28.338;2022-11-21T11:10:27;98630.94;;;16.11;100.00
26087;BME280;13851;43.434;28.338;2022-11-21T11:12:53;98809.63;;;16.91;100.00
26087;BME280;13851;43.434;28.338;2022-11-21T11:16:14;98779.53;;;16.95;100.00
26087;BME280;13851;43.434;28.338;2022-11-21T11:19:06;98752.19;;;16.81;100.00
26087;BME280;13851;43.434;28.338;2022-11-21T11:21:43;98570.25;;;15.71;100.00
26087;BME280;13851;43.434;28.338;2022-11-21T11:27:25;98749.50;;;17.03;100.00
26087;BME280;13851;43.434;28.338;2022-11-21T11:29:30;98769.88;;;17.14;100.00
26087;BME280;13851;43.434;28.338;2022-11-21T11:32:13;98782.47;;;17.22;100.00
26087;BME280;13851;43.434;28.338;2022-11-21T11:45:25;98748.91;;;17.35;100.00
26087;BME280;13851;43.434;28.338;2022-11-21T11:48:14;98766.13;;;17.37;100.00
26087;BME280;13851;43.434;28.338;2022-11-21T11:50:54;98772.59;;;17.26;100.00
26087;BME280;13851;43.434;28.338;2022-11-21T11:53:25;98775.09;;;17.10;100.00
26087;BME280;13851;43.434;28.338;2022-11-21T11:56:15;98775.09;;;17.10;100.00
26087;BME280;13851;43.434;28.338;2022-11-21T11:58:53;98798.56;;;16.91;100.00
26087;BME280;13851;43.434;28.338;2022-11-21T12:04:12;98748.59;;;16.81;100.00
26087;BME280;13851;43.434;28.338;2022-11-21T12:06:44;98728.78;;;16.72;100.00
26087;BME280;13851;43.434;28.338;2022-11-21T12:09:38;98772.13;;;16.83;100.00
26087;BME280;13851;43.434;28.338;2022-11-21T12:12:31;98734.34;;;16.89;100.00
26087;BME280;13851;43.434;28.338;2022-11-21T12:26:26;98692.31;;;16.58;100.00
26087;BME280;13851;43.434;28.338;2022-11-21T12:47:49;98663.03;;;15.60;100.00
26087;BME280;13851;43.434;28.338;2022-11-21T12:57:28;98760.75;;;16.23;100.00
26087;BME280;13851;43.434;28.338;2022-11-21T13:04:48;98820.50;;;16.41;100.00
26087;BME280;13851;43.434;28.338;2022-11-21T13:07:16;98822.81;;;16.32;100.00
26087;BME280;13851;43.434;28.338;2022-11-21T13:09:46;98799.75;;;15.63;100.00
26087;BME280;13851;43.434;28.338;2022-11-21T13:12:20;98828.72;;;14.95;100.00
26087;BME280;13851;43.434;28.338;2022-11-21T13:25:09;98859.44;;;13.95;100.00
26087;BME280;13851;43.434;28.338;2022-11-21T13:27:42;98818.38;;;13.75;100.00
26087;BME280;13851;43.434;28.338;2022-11-21T13:32:58;98828.63;;;13.68;100.00
26087;BME280;13851;43.434;28.338;2022-11-21T13:37:59;98850.47;;;13.63;100.00
26087;BME280;13851;43.434;28.338;2022-11-21T13:45:46;98861.34;;;13.94;100.00
26087;BME280;13851;43.434;28.338;2022-11-21T13:48:48;98749.38;;;13.33;100.00
26087;BME280;13851;43.434;28.338;2022-11-21T13:57:14;98881.72;;;13.93;100.00
26087;BME280;13851;43.434;28.338;2022-11-21T14:03:28;98886.25;;;13.81;100.00
26087;BME280;13851;43.434;28.338;2022-11-21T14:09:17;98913.91;;;13.93;100.00
26087;BME280;13851;43.434;28.338;2022-11-21T14:14:25;98900.59;;;14.45;100.00
26087;BME280;13851;43.434;28.338;2022-11-21T14:17:02;98897.63;;;14.46;100.00
26087;BME280;13851;43.434;28.338;2022-11-21T14:19:32;98877.88;;;14.31;100.00
26087;BME280;13851;43.434;28.338;2022-11-21T14:21:59;98867.88;;;14.18;100.00
26087;BME280;13851;43.434;28.338;2022-11-21T14:24:25;98889.28;;;13.98;100.00
26087;BME280;13851;43.434;28.338;2022-11-21T14:26:52;98889.59;;;14.08;100.00
26087;BME280;13851;43.434;28.338;2022-11-21T14:29:37;98890.41;;;13.90;100.00
26087;BME280;13851;43.434;28.338;2022-11-21T14:32:03;98695.91;;;12.61;100.00
26087;BME280;13851;43.434;28.338;2022-11-21T14:34:30;98862.41;;;13.75;100.00
26087;BME280;13851;43.434;28.338;2022-11-21T14:37:03;98892.00;;;13.79;100.00
26087;BME280;13851;43.434;28.338;2022-11-21T14:39:31;98913.06;;;13.92;100.00
26087;BME280;13851;43.434;28.338;2022-11-21T14:42:02;98740.03;;;12.91;100.00
26087;BME280;13851;43.434;28.338;2022-11-21T14:44:28;98910.06;;;14.12;100.00
26087;BME280;13851;43.434;28.338;2022-11-21T14:49:53;98896.00;;;14.02;100.00
26087;BME280;13851;43.434;28.338;2022-11-21T14:52:23;98738.28;;;12.96;100.00
26087;BME280;13851;43.434;28.338;2022-11-21T14:54:54;98909.41;;;13.98;100.00